createdAt,value
2019-04-23T00:00:03.478Z,8.18
2019-04-23T00:02:30.088Z,7.75
2019-04-23T00:05:02.753Z,8.68
2019-04-23T00:07:46.072Z,5.97
2019-04-23T00:10:12.389Z,9.63
2019-04-23T00:12:49.397Z,6.92
2019-04-23T00:15:08.777Z,5.62
2019-04-23T00:17:48.935Z,8.33
2019-04-23T00:20:09.429Z,10.13
2019-04-23T00:23:02.465Z,8.23
2019-04-23T00:28:06.563Z,7.62
2019-04-23T00:30:42.814Z,10.55
2019-04-23T00:33:12.573Z,9.85
2019-04-23T00:35:38.877Z,8.73
2019-04-23T00:38:10.489Z,6.15
2019-04-23T00:40:39.048Z,6.85
2019-04-23T00:48:14.860Z,10.80
2019-04-23T00:50:52.826Z,6.70
2019-04-23T00:53:13.805Z,5.87
2019-04-23T01:05:48.409Z,7.67
2019-04-23T01:08:19.914Z,6.70
2019-04-23T01:11:21.199Z,10.05
2019-04-23T01:20:58.991Z,7.40
2019-04-23T01:23:42.404Z,8.78
2019-04-23T01:26:26.508Z,8.50
2019-04-23T01:29:03.752Z,9.75
2019-04-23T01:31:33.105Z,9.90
2019-04-23T01:34:08.872Z,8.48
2019-04-23T01:36:33.268Z,9.55
2019-04-23T01:39:08.486Z,9.55
2019-04-23T01:41:41.451Z,8.90
2019-04-23T01:44:06.372Z,8.95
2019-04-23T01:46:42.050Z,8.13
2019-04-23T01:49:31.244Z,7.42
2019-04-23T01:54:09.153Z,9.40
2019-04-23T01:56:38.572Z,9.63
2019-04-23T01:59:16.135Z,10.00
2019-04-23T02:01:47.551Z,9.30
2019-04-23T02:04:20.130Z,9.23
2019-04-23T02:06:44.822Z,8.45
2019-04-23T02:09:13.805Z,7.62
2019-04-23T02:11:47.115Z,8.00
2019-04-23T02:14:16.392Z,8.28
2019-04-23T02:16:44.141Z,9.75
2019-04-23T02:19:22.133Z,9.93
2019-04-23T02:22:01.275Z,9.00
2019-04-23T02:24:33.739Z,7.42
2019-04-23T02:26:58.941Z,8.65
2019-04-23T02:35:02.308Z,8.88
2019-04-23T02:37:18.697Z,9.00
2019-04-23T02:42:37.412Z,7.47
2019-04-23T02:44:38.988Z,9.38
2019-04-23T02:47:17.701Z,7.70
2019-04-23T02:49:54.868Z,9.05
2019-04-23T02:55:03.901Z,7.65
2019-04-23T03:00:14.164Z,8.13
2019-04-23T03:07:27.396Z,7.12
2019-04-23T03:12:29.468Z,7.33
2019-04-23T03:14:59.265Z,8.75
2019-04-23T03:17:15.174Z,9.65
2019-04-23T03:20:10.698Z,10.15
2019-04-23T03:22:45.902Z,7.65
2019-04-23T03:25:10.254Z,10.13
2019-04-23T03:27:37.459Z,9.83
2019-04-23T03:30:16.415Z,8.00
2019-04-23T03:33:58.855Z,8.63
2019-04-23T03:35:09.700Z,9.20
2019-04-23T03:37:42.458Z,7.03
2019-04-23T03:40:09.537Z,8.95
2019-04-23T03:42:47.719Z,7.75
2019-04-23T03:45:26.657Z,8.48
2019-04-23T03:47:48.527Z,9.03
2019-04-23T03:52:38.661Z,6.92
2019-04-23T03:55:19.198Z,8.70
2019-04-23T04:00:28.907Z,8.85
2019-04-23T04:03:10.907Z,7.20
2019-04-23T04:05:22.115Z,7.08
2019-04-23T04:08:56.777Z,8.70
2019-04-23T04:10:16.706Z,8.68
2019-04-23T04:15:43.676Z,9.13
2019-04-23T04:18:01.230Z,8.65
2019-04-23T04:20:35.180Z,9.23
2019-04-23T04:23:07.820Z,10.45
2019-04-23T04:28:01.334Z,11.28
2019-04-23T04:30:31.908Z,11.08
2019-04-23T04:33:19.661Z,9.60
2019-04-23T04:35:24.852Z,9.00
2019-04-23T04:38:13.030Z,8.80
2019-04-23T04:43:09.233Z,11.12
2019-04-23T04:47:49.354Z,8.50
2019-04-23T04:50:26.390Z,7.95
2019-04-23T04:53:12.440Z,8.40
2019-04-23T04:57:59.837Z,9.10
2019-04-23T05:00:43.863Z,5.12
2019-04-23T05:06:01.803Z,9.00
2019-04-23T05:08:13.812Z,7.40
2019-04-23T05:10:55.741Z,8.08
2019-04-23T05:20:58.873Z,9.00
2019-04-23T05:26:15.544Z,8.88
2019-04-23T05:28:54.448Z,9.05
2019-04-23T05:31:15.808Z,8.08
2019-04-23T05:33:46.389Z,6.65
2019-04-23T05:36:22.792Z,7.33
2019-04-23T05:38:54.263Z,7.35
2019-04-23T05:41:31.935Z,7.35
2019-04-23T05:43:46.646Z,9.58
2019-04-23T05:46:22.597Z,7.95
2019-04-23T05:51:23.748Z,9.30
2019-04-23T05:53:51.352Z,8.23
2019-04-23T05:56:33.149Z,9.70
2019-04-23T05:58:52.955Z,7.05
2019-04-23T06:01:44.552Z,7.50
2019-04-23T06:04:03.723Z,9.68
2019-04-23T06:09:03.512Z,9.05
2019-04-23T06:11:43.756Z,7.20
2019-04-23T06:19:02.720Z,7.83
2019-04-23T06:21:38.408Z,8.65
2019-04-23T06:26:45.585Z,9.90
2019-04-23T06:29:07.112Z,8.00
2019-04-23T06:31:40.789Z,9.25
2019-04-23T06:34:04.210Z,8.98
2019-04-23T06:36:32.388Z,6.45
2019-04-23T06:41:41.953Z,9.60
2019-04-23T06:44:24.095Z,9.70
2019-04-23T06:46:56.860Z,10.07
2019-04-23T06:49:26.434Z,8.58
2019-04-23T06:52:00.722Z,7.95
2019-04-23T06:54:28.190Z,10.32
2019-04-23T06:57:00.932Z,9.48
2019-04-23T06:59:27.729Z,7.28
2019-04-23T07:02:01.066Z,8.20
2019-04-23T07:04:25.653Z,7.95
2019-04-23T07:07:21.715Z,6.45
2019-04-23T07:09:40.976Z,8.78
2019-04-23T07:14:33.932Z,8.38
2019-04-23T07:16:58.589Z,8.75
2019-04-23T07:22:08.189Z,3.93
2019-04-23T07:24:27.710Z,7.08
2019-04-23T07:27:08.886Z,7.10
2019-04-23T07:29:40.579Z,5.40
2019-04-23T07:32:05.400Z,7.45
2019-04-23T07:34:55.666Z,7.58
2019-04-23T07:37:07.409Z,6.15
2019-04-23T07:39:47.284Z,6.92
2019-04-23T07:42:29.827Z,7.30
2019-04-23T07:48:01.852Z,8.30
2019-04-23T07:55:43.350Z,8.00
2019-04-23T07:58:06.460Z,8.25
2019-04-23T08:00:34.992Z,8.43
2019-04-23T08:03:08.507Z,7.25
2019-04-23T08:08:01.633Z,8.20
2019-04-23T08:13:10.003Z,9.93
2019-04-23T08:15:42.544Z,8.83
2019-04-23T08:18:16.153Z,8.73
2019-04-23T08:20:49.409Z,7.87
2019-04-23T08:23:17.732Z,7.53
2019-04-23T08:26:13.882Z,6.70
2019-04-23T08:28:43.429Z,7.45
2019-04-23T08:31:07.789Z,8.35
2019-04-23T08:33:42.176Z,6.28
2019-04-23T08:38:36.268Z,8.98
2019-04-23T08:43:47.917Z,8.88
2019-04-23T08:46:23.036Z,9.80
2019-04-23T08:48:51.848Z,8.90
2019-04-23T08:51:32.272Z,6.47
2019-04-23T08:53:40.749Z,8.65
2019-04-23T08:56:27.844Z,8.88
2019-04-23T08:58:47.554Z,6.20
2019-04-23T09:01:15.573Z,7.12
2019-04-23T09:03:45.728Z,9.15
2019-04-23T09:06:21.724Z,8.43
2019-04-23T09:08:50.263Z,7.03
2019-04-23T09:11:41.844Z,6.10
2019-04-23T09:16:28.713Z,7.17
2019-04-23T09:19:02.813Z,6.65
2019-04-23T09:21:30.940Z,6.53
2019-04-23T09:26:25.907Z,8.00
2019-04-23T09:34:31.649Z,8.58
2019-04-23T09:37:10.272Z,6.70
2019-04-23T09:39:46.844Z,8.78
2019-04-23T09:42:14.786Z,6.50
2019-04-23T09:44:58.288Z,8.20
2019-04-23T09:47:19.488Z,7.92
2019-04-23T09:49:56.732Z,5.75
2019-04-23T09:52:20.052Z,6.97
2019-04-23T09:55:02.109Z,7.10
2019-04-23T09:57:17.111Z,6.20
2019-04-23T10:00:03.241Z,5.87
2019-04-23T10:02:16.060Z,5.17
2019-04-23T10:04:39.782Z,6.80
2019-04-23T10:07:15.314Z,7.37
2019-04-23T10:09:29.936Z,5.10
2019-04-23T10:11:59.058Z,8.88
2019-04-23T10:14:28.448Z,9.53
2019-04-23T10:16:58.025Z,9.48
2019-04-23T10:19:28.651Z,5.95
2019-04-23T10:21:59.661Z,6.58
2019-04-23T10:24:28.378Z,8.75
2019-04-23T10:26:57.809Z,8.33
2019-04-23T10:29:36.230Z,8.28
2019-04-23T10:32:04.943Z,8.38
2019-04-23T10:34:47.519Z,9.13
2019-04-23T10:37:05.159Z,9.13
2019-04-23T10:39:37.828Z,8.33
2019-04-23T10:42:05.888Z,9.08
2019-04-23T10:44:38.002Z,9.35
2019-04-23T10:47:54.008Z,6.58
2019-04-23T10:50:57.269Z,7.85
2019-04-23T10:53:25.854Z,9.78
2019-04-23T10:55:46.760Z,8.28
2019-04-23T10:58:18.473Z,6.87
2019-04-23T11:00:44.994Z,8.40
2019-04-23T11:03:37.995Z,7.42
2019-04-23T11:08:19.197Z,8.35
2019-04-23T11:10:51.369Z,9.08
2019-04-23T11:13:38.363Z,9.23
2019-04-23T11:18:45.223Z,8.18
2019-04-23T11:23:35.950Z,9.03
2019-04-23T11:31:17.266Z,7.90
2019-04-23T11:33:42.973Z,7.83
2019-04-23T11:38:55.475Z,8.38
2019-04-23T11:41:28.570Z,9.30
2019-04-23T11:43:50.770Z,8.60
2019-04-23T11:46:34.095Z,11.00
2019-04-23T11:49:02.444Z,9.48
2019-04-23T11:51:45.925Z,8.95
2019-04-23T11:53:56.145Z,8.70
2019-04-23T11:58:52.867Z,9.53
2019-04-23T12:01:42.116Z,9.58
2019-04-23T12:06:52.810Z,7.00
2019-04-23T12:11:58.258Z,6.50
2019-04-23T12:14:48.026Z,8.83
2019-04-23T12:17:22.699Z,8.98
2019-04-23T12:20:06.384Z,9.90
2019-04-23T12:27:25.268Z,5.72
2019-04-23T12:29:52.298Z,6.58
2019-04-23T12:32:43.076Z,8.70
2019-04-23T12:37:35.041Z,8.75
2019-04-23T12:40:05.887Z,10.78
2019-04-23T12:52:40.979Z,10.05
2019-04-23T12:55:19.696Z,11.03
2019-04-23T12:57:40.942Z,9.35
2019-04-23T13:00:17.273Z,12.80
2019-04-23T13:05:25.907Z,10.98
2019-04-23T13:10:48.060Z,8.35
2019-04-23T13:15:34.301Z,9.78
2019-04-23T13:18:04.655Z,8.95
2019-04-23T13:20:42.613Z,12.82
2019-04-23T13:23:08.584Z,10.55
2019-04-23T13:28:27.999Z,8.78
2019-04-23T13:31:00.783Z,8.15
2019-04-23T13:38:38.411Z,10.93
2019-04-23T13:41:11.083Z,11.15
2019-04-23T13:48:27.575Z,9.43
2019-04-23T13:51:09.823Z,7.78
2019-04-23T13:56:09.136Z,9.98
2019-04-23T14:11:19.506Z,6.65
2019-04-23T14:13:52.109Z,8.53
2019-04-23T14:16:29.797Z,9.25
2019-04-23T14:21:20.424Z,12.53
2019-04-23T14:26:25.582Z,8.43
2019-04-23T14:28:59.181Z,10.40
2019-04-23T14:31:17.435Z,10.63
2019-04-23T14:34:03.611Z,10.58
2019-04-23T14:36:28.258Z,10.05
2019-04-23T14:38:59.559Z,10.78
2019-04-23T14:41:31.899Z,11.00
2019-04-23T14:48:56.747Z,11.48
2019-04-23T14:51:32.310Z,9.93
2019-04-23T14:54:03.463Z,11.88
2019-04-23T14:56:32.665Z,9.73
2019-04-23T15:01:35.823Z,8.28
2019-04-23T15:03:55.545Z,9.80
2019-04-23T15:14:05.394Z,12.33
2019-04-23T15:22:04.938Z,13.68
2019-04-23T15:29:01.644Z,8.45
2019-04-23T15:31:52.311Z,11.35
2019-04-23T15:37:01.017Z,11.93
2019-04-23T15:39:24.408Z,13.65
2019-04-23T15:41:59.288Z,12.40
2019-04-23T15:46:56.215Z,9.33
2019-04-23T15:49:32.371Z,8.85
2019-04-23T15:54:24.995Z,9.08
2019-04-23T15:56:55.213Z,10.55
2019-04-23T15:59:34.225Z,10.43
2019-04-23T16:01:41.168Z,11.33
2019-04-23T16:03:59.004Z,8.58
2019-04-23T16:06:30.935Z,10.15
2019-04-23T16:09:16.217Z,10.90
2019-04-23T16:12:04.730Z,8.70
2019-04-23T16:17:04.439Z,11.85
2019-04-23T16:19:52.826Z,13.38
2019-04-23T16:22:16.590Z,10.43
2019-04-23T16:24:51.901Z,11.68
2019-04-23T16:27:44.335Z,8.80
2019-04-23T16:32:31.412Z,8.50
2019-04-23T16:35:10.587Z,11.48
2019-04-23T16:37:27.204Z,10.98
2019-04-23T16:40:03.395Z,10.00
2019-04-23T16:42:29.760Z,12.80
2019-04-23T16:47:32.885Z,11.33
2019-04-23T16:50:04.486Z,13.03
2019-04-23T16:52:34.474Z,13.20
2019-04-23T16:55:16.599Z,9.90
2019-04-23T16:57:45.966Z,12.45
2019-04-23T17:02:34.226Z,10.00
2019-04-23T17:05:14.350Z,12.15
2019-04-23T17:07:33.845Z,11.30
2019-04-23T17:12:35.705Z,12.15
2019-04-23T17:15:10.927Z,14.05
2019-04-23T17:17:40.843Z,11.60
2019-04-23T17:22:53.179Z,13.32
2019-04-23T17:25:17.220Z,11.48
2019-04-23T17:27:49.315Z,14.43
2019-04-23T17:30:20.362Z,11.95
2019-04-23T17:32:50.307Z,13.50
2019-04-23T17:38:09.128Z,14.43
2019-04-23T17:40:45.097Z,16.73
2019-04-23T17:43:08.864Z,12.98
2019-04-23T17:45:35.788Z,11.43
2019-04-23T17:48:15.762Z,13.13
2019-04-23T17:53:25.468Z,10.45
2019-04-23T18:01:11.264Z,14.70
2019-04-23T18:03:30.106Z,16.10
2019-04-23T18:08:29.168Z,10.72
2019-04-23T18:16:25.929Z,14.98
2019-04-23T18:18:39.187Z,10.85
2019-04-23T18:21:27.274Z,12.50
2019-04-23T18:24:02.761Z,12.78
2019-04-23T18:26:42.170Z,15.63
2019-04-23T18:29:16.886Z,14.85
2019-04-23T18:31:38.613Z,16.90
2019-04-23T18:36:43.819Z,11.20
2019-04-23T18:39:18.724Z,14.93
2019-04-23T18:41:57.949Z,15.98
2019-04-23T18:44:25.237Z,14.10
2019-04-23T18:49:22.182Z,15.45
2019-04-23T18:51:49.489Z,12.98
2019-04-23T18:54:15.200Z,14.38
2019-04-23T18:57:06.579Z,18.10
2019-04-23T18:59:32.632Z,11.43
2019-04-23T19:02:02.532Z,14.30
2019-04-23T19:04:54.775Z,11.85
2019-04-23T19:07:05.368Z,13.08
2019-04-23T19:10:04.282Z,9.23
2019-04-23T19:12:28.004Z,12.88
2019-04-23T19:14:52.256Z,14.10
2019-04-23T19:19:49.934Z,14.03
2019-04-23T19:22:27.330Z,11.65
2019-04-23T19:24:46.727Z,10.63
2019-04-23T19:29:59.700Z,12.93
2019-04-23T19:32:14.354Z,14.98
2019-04-23T19:35:16.222Z,13.03
2019-04-23T19:37:24.589Z,14.83
2019-04-23T19:42:29.036Z,13.35
2019-04-23T19:45:00.226Z,14.15
2019-04-23T19:47:38.559Z,15.00
2019-04-23T19:49:58.826Z,13.53
2019-04-23T19:52:52.558Z,16.93
2019-04-23T19:55:01.483Z,18.20
2019-04-23T19:57:37.614Z,13.00
2019-04-23T20:00:30.681Z,8.60
2019-04-23T20:02:55.319Z,8.25
2019-04-23T20:04:59.501Z,15.68
2019-04-23T20:07:55.469Z,15.70
2019-04-23T20:09:56.961Z,10.25
2019-04-23T20:12:40.870Z,14.75
2019-04-23T20:15:00.234Z,13.72
2019-04-23T20:20:28.667Z,14.78
2019-04-23T20:25:46.368Z,11.08
2019-04-23T20:27:54.253Z,16.12
2019-04-23T20:30:42.587Z,14.93
2019-04-23T20:32:09.153Z,16.23
2019-04-23T20:33:33.405Z,14.15
2019-04-23T20:35:13.132Z,11.97
2019-04-23T20:40:24.333Z,14.78
2019-04-23T20:45:20.513Z,8.88
2019-04-23T20:47:51.703Z,7.28
2019-04-23T20:50:16.419Z,11.25
2019-04-23T20:55:29.261Z,13.18
2019-04-23T20:58:09.618Z,16.62
2019-04-23T21:00:56.510Z,15.23
2019-04-23T21:03:30.453Z,8.63
2019-04-23T21:05:41.211Z,7.55
2019-04-23T21:08:30.878Z,11.55
2019-04-23T21:10:58.245Z,13.03
2019-04-23T21:15:52.496Z,8.33
2019-04-23T21:20:54.698Z,10.40
2019-04-23T21:23:21.662Z,11.45
2019-04-23T21:31:06.567Z,10.45
2019-04-23T21:33:37.712Z,8.13
2019-04-23T21:44:08.228Z,14.78
2019-04-23T21:54:02.078Z,15.23
2019-04-23T21:59:02.613Z,8.20
2019-04-23T22:04:15.667Z,13.62
2019-04-23T22:06:43.440Z,10.85
2019-04-23T22:09:14.677Z,11.88
2019-04-23T22:19:19.720Z,9.85
2019-04-23T22:22:00.951Z,14.70
2019-04-23T22:24:27.272Z,10.93
2019-04-23T22:26:57.640Z,9.08
2019-04-23T22:29:47.141Z,8.10
2019-04-23T22:32:23.642Z,8.53
2019-04-23T22:34:55.700Z,10.43
2019-04-23T22:37:23.821Z,9.30
2019-04-23T22:42:44.869Z,14.45
2019-04-23T22:45:07.589Z,12.35
2019-04-23T22:47:36.595Z,10.68
2019-04-23T22:52:36.850Z,8.60
2019-04-23T22:55:12.817Z,12.47
2019-04-23T23:00:14.387Z,11.88
2019-04-23T23:05:53.731Z,9.20
2019-04-23T23:10:44.252Z,6.55
2019-04-23T23:13:13.817Z,10.70
2019-04-23T23:15:51.416Z,12.43
2019-04-23T23:20:52.712Z,11.28
2019-04-23T23:25:55.308Z,10.68
2019-04-23T23:31:05.336Z,13.28
2019-04-23T23:35:58.928Z,10.70
2019-04-23T23:38:33.005Z,11.05
2019-04-23T23:43:34.969Z,11.68
2019-04-23T23:51:11.591Z,15.65
2019-04-23T23:53:39.752Z,11.12
2019-04-23T23:56:15.746Z,11.65
2019-04-23T23:58:43.709Z,14.20
